createdAt,value
2022-11-30T00:01:58.264Z,17.02
2022-11-30T00:04:46.977Z,15.95
2022-11-30T00:07:34.039Z,22.45
2022-11-30T00:10:25.562Z,17.88
2022-11-30T00:13:13.484Z,15.98
2022-11-30T00:16:01.557Z,17.55
2022-11-30T00:18:46.898Z,19.55
2022-11-30T00:21:32.425Z,16.70
2022-11-30T00:24:17.770Z,17.02
2022-11-30T00:27:03.834Z,14.80
2022-11-30T00:29:49.425Z,16.92
2022-11-30T00:32:37.723Z,18.30
2022-11-30T00:35:31.975Z,24.58
2022-11-30T00:38:17.490Z,15.80
2022-11-30T00:41:05.983Z,15.40
2022-11-30T00:43:51.353Z,15.65
2022-11-30T00:46:36.645Z,20.65
2022-11-30T00:49:22.208Z,17.73
2022-11-30T00:52:19.702Z,23.38
2022-11-30T00:55:05.647Z,24.17
2022-11-30T00:57:50.889Z,17.70
2022-11-30T01:00:39.786Z,16.92
2022-11-30T01:03:26.209Z,17.05
2022-11-30T01:06:14.161Z,15.68
2022-11-30T01:09:08.235Z,15.13
2022-11-30T01:11:56.188Z,14.27
2022-11-30T01:14:41.813Z,17.35
2022-11-30T01:17:28.038Z,13.73
2022-11-30T01:20:13.578Z,17.02
2022-11-30T01:22:58.728Z,13.30
2022-11-30T01:25:54.537Z,18.27
2022-11-30T01:28:44.259Z,21.85
2022-11-30T01:31:32.241Z,20.00
2022-11-30T01:34:17.700Z,18.55
2022-11-30T01:37:02.976Z,21.58
2022-11-30T01:39:51.173Z,22.73
2022-11-30T01:42:46.473Z,24.42
2022-11-30T01:45:31.748Z,24.15
2022-11-30T01:48:17.276Z,25.20
2022-11-30T01:51:02.925Z,28.95
2022-11-30T01:53:48.710Z,22.73
2022-11-30T01:56:35.634Z,26.73
2022-11-30T01:59:24.046Z,27.10
2022-11-30T02:02:10.419Z,30.55
2022-11-30T02:04:55.766Z,30.60
2022-11-30T02:07:42.054Z,32.83
2022-11-30T02:10:34.514Z,29.52
2022-11-30T02:13:41.281Z,29.98
2022-11-30T02:16:29.320Z,27.98
2022-11-30T02:19:14.479Z,25.98
2022-11-30T02:22:16.642Z,31.15
2022-11-30T02:25:22.061Z,35.88
2022-11-30T02:28:21.019Z,33.25
2022-11-30T02:31:10.541Z,28.58
2022-11-30T02:33:59.666Z,31.52
2022-11-30T02:36:46.670Z,31.67
2022-11-30T02:39:32.336Z,28.60
2022-11-30T02:42:18.045Z,30.90
2022-11-30T02:45:04.796Z,41.22
2022-11-30T02:47:54.466Z,28.20
2022-11-30T02:50:45.736Z,36.80
2022-11-30T02:53:31.304Z,31.80
2022-11-30T02:56:18.924Z,34.55
2022-11-30T02:59:07.410Z,35.08
2022-11-30T03:01:53.261Z,36.03
2022-11-30T03:04:38.681Z,41.28
2022-11-30T03:07:24.360Z,31.75
2022-11-30T03:10:10.538Z,34.08
2022-11-30T03:13:00.599Z,44.22
2022-11-30T03:15:45.972Z,38.78
2022-11-30T03:18:35.451Z,45.58
2022-11-30T03:21:25.178Z,45.25
2022-11-30T03:24:10.990Z,41.75
2022-11-30T03:26:56.374Z,39.95
2022-11-30T03:29:41.552Z,47.25
2022-11-30T03:32:27.210Z,47.13
2022-11-30T03:35:13.191Z,53.85
2022-11-30T03:38:01.476Z,45.25
2022-11-30T03:40:46.781Z,50.22
2022-11-30T03:43:32.770Z,59.40
2022-11-30T03:46:18.526Z,67.07
2022-11-30T03:49:03.909Z,64.50
2022-11-30T03:51:49.619Z,73.30
2022-11-30T03:54:35.372Z,67.35
2022-11-30T03:57:20.873Z,77.20
2022-11-30T04:00:07.863Z,68.90
2022-11-30T04:02:57.513Z,79.50
2022-11-30T04:05:43.377Z,90.28
2022-11-30T04:08:29.895Z,71.40
2022-11-30T04:11:16.124Z,73.97
2022-11-30T04:14:01.511Z,90.65
2022-11-30T04:16:46.710Z,84.30
2022-11-30T04:19:32.123Z,88.07
2022-11-30T04:22:17.986Z,88.95
2022-11-30T04:25:03.538Z,100.65
2022-11-30T04:27:48.819Z,87.65
2022-11-30T04:30:35.830Z,81.32
2022-11-30T04:33:21.114Z,85.50
2022-11-30T04:36:08.105Z,84.50
2022-11-30T04:38:53.934Z,100.07
2022-11-30T04:41:39.788Z,104.45
2022-11-30T04:44:25.263Z,84.00
2022-11-30T04:47:10.989Z,91.88
2022-11-30T04:49:56.591Z,90.30
2022-11-30T04:52:42.103Z,82.82
2022-11-30T04:55:27.942Z,82.07
2022-11-30T04:58:13.661Z,80.85
2022-11-30T05:01:02.227Z,82.75
2022-11-30T05:03:47.682Z,82.65
2022-11-30T05:06:35.257Z,103.18
2022-11-30T05:09:20.758Z,88.63
2022-11-30T05:12:06.666Z,91.93
2022-11-30T05:14:54.509Z,74.20
2022-11-30T05:17:40.045Z,78.38
2022-11-30T05:20:25.731Z,80.28
2022-11-30T05:23:11.262Z,75.20
2022-11-30T05:26:01.466Z,81.18
2022-11-30T05:28:49.813Z,75.75
2022-11-30T05:31:43.206Z,74.00
2022-11-30T05:34:28.894Z,80.80
2022-11-30T05:37:14.133Z,74.10
2022-11-30T05:40:05.261Z,72.28
2022-11-30T05:43:01.019Z,78.93
2022-11-30T05:45:51.682Z,72.82
2022-11-30T05:48:37.789Z,69.15
2022-11-30T05:51:23.258Z,66.57
2022-11-30T05:54:08.747Z,66.05
2022-11-30T05:56:55.373Z,66.18
2022-11-30T05:59:41.074Z,70.47
2022-11-30T06:02:29.093Z,64.70
2022-11-30T06:05:14.278Z,60.63
2022-11-30T06:08:00.742Z,62.25
2022-11-30T06:10:46.658Z,64.50
2022-11-30T06:13:34.859Z,59.55
2022-11-30T06:16:20.339Z,63.35
2022-11-30T06:19:06.191Z,54.80
2022-11-30T06:21:51.602Z,64.35
2022-11-30T06:24:36.999Z,61.15
2022-11-30T06:27:24.993Z,66.68
2022-11-30T06:30:11.366Z,62.05
2022-11-30T06:32:57.192Z,59.83
2022-11-30T06:35:46.914Z,60.85
2022-11-30T06:38:32.169Z,66.35
2022-11-30T06:41:17.610Z,55.65
2022-11-30T06:44:07.461Z,55.00
2022-11-30T06:46:52.779Z,54.22
2022-11-30T06:49:41.667Z,66.85
2022-11-30T06:52:27.647Z,68.53
2022-11-30T06:55:12.896Z,71.05
2022-11-30T06:58:17.278Z,72.93
2022-11-30T07:01:06.068Z,91.65
2022-11-30T07:03:54.387Z,82.78
2022-11-30T07:06:40.006Z,70.18
2022-11-30T07:09:25.238Z,75.50
2022-11-30T07:12:10.910Z,83.93
2022-11-30T07:14:56.185Z,89.80
2022-11-30T07:17:41.833Z,84.88
2022-11-30T07:20:27.046Z,67.45
2022-11-30T07:23:31.035Z,72.72
2022-11-30T07:26:16.760Z,69.28
2022-11-30T07:29:14.338Z,73.18
2022-11-30T07:31:59.692Z,69.05
2022-11-30T07:34:46.696Z,75.70
2022-11-30T07:37:32.414Z,67.80
2022-11-30T07:40:20.613Z,70.57
2022-11-30T07:43:05.751Z,56.75
2022-11-30T07:45:53.307Z,63.58
2022-11-30T07:48:38.989Z,51.67
2022-11-30T07:51:24.367Z,46.75
2022-11-30T07:54:10.014Z,48.08
2022-11-30T07:56:55.404Z,43.80
2022-11-30T07:59:40.826Z,47.70
2022-11-30T08:02:26.254Z,49.35
2022-11-30T08:05:12.309Z,48.38
2022-11-30T08:07:57.751Z,44.75
2022-11-30T08:10:44.189Z,45.92
2022-11-30T08:13:30.581Z,51.08
2022-11-30T08:16:22.593Z,42.22
2022-11-30T08:19:08.081Z,45.38
2022-11-30T08:21:53.415Z,45.10
2022-11-30T08:24:41.921Z,43.97
2022-11-30T08:27:27.731Z,37.90
2022-11-30T08:30:13.929Z,39.72
2022-11-30T08:32:59.345Z,43.25
2022-11-30T08:35:47.296Z,42.95
2022-11-30T08:38:35.423Z,47.45
2022-11-30T08:41:25.146Z,45.00
2022-11-30T08:44:11.051Z,50.45
2022-11-30T08:46:56.609Z,45.63
2022-11-30T08:49:41.869Z,50.85
2022-11-30T08:52:27.617Z,46.05
2022-11-30T08:55:16.305Z,50.20
2022-11-30T08:58:01.342Z,43.15
2022-11-30T09:03:36.698Z,38.75
2022-11-30T09:06:25.395Z,45.53
2022-11-30T09:09:10.931Z,41.55
2022-11-30T09:11:56.072Z,37.20
2022-11-30T09:14:42.029Z,35.25
2022-11-30T09:17:27.728Z,36.97
2022-11-30T09:20:19.622Z,31.95
2022-11-30T09:23:05.245Z,38.70
2022-11-30T09:25:56.641Z,34.05
2022-11-30T09:28:42.728Z,34.92
2022-11-30T09:31:31.315Z,36.42
2022-11-30T09:34:17.089Z,34.28
2022-11-30T09:37:02.661Z,36.08
2022-11-30T09:39:48.321Z,37.75
2022-11-30T09:43:10.926Z,28.55
2022-11-30T09:46:02.188Z,33.55
2022-11-30T09:49:11.986Z,32.33
2022-11-30T09:52:07.047Z,25.88
2022-11-30T09:54:52.463Z,29.65
2022-11-30T09:57:46.895Z,29.42
2022-11-30T10:00:34.924Z,30.27
2022-11-30T10:03:23.162Z,30.40
2022-11-30T10:06:15.454Z,26.92
2022-11-30T10:09:03.773Z,26.63
2022-11-30T10:12:21.483Z,26.27
2022-11-30T10:15:25.945Z,27.13
2022-11-30T10:18:32.250Z,24.70
2022-11-30T10:22:16.270Z,24.20
2022-11-30T10:25:30.080Z,24.02
2022-11-30T10:28:45.657Z,29.17
2022-11-30T10:31:35.706Z,25.15
2022-11-30T10:34:24.210Z,24.95
2022-11-30T10:37:29.403Z,29.15
2022-11-30T10:40:44.926Z,23.95
2022-11-30T10:44:00.996Z,27.35
2022-11-30T10:47:04.849Z,26.38
2022-11-30T10:49:52.717Z,24.15
2022-11-30T10:52:43.832Z,24.35
2022-11-30T10:55:56.543Z,20.58
2022-11-30T10:58:50.678Z,20.58
2022-11-30T11:01:39.546Z,16.05
2022-11-30T11:04:29.608Z,20.55
2022-11-30T11:07:21.660Z,20.08
2022-11-30T11:10:16.814Z,16.30
2022-11-30T11:13:02.149Z,17.08
2022-11-30T11:16:01.632Z,19.40
2022-11-30T11:18:55.845Z,17.88
2022-11-30T11:21:51.902Z,18.35
2022-11-30T11:24:41.144Z,22.38
2022-11-30T11:27:28.364Z,22.30
2022-11-30T11:30:26.683Z,21.90
2022-11-30T11:33:12.162Z,21.92
2022-11-30T11:36:06.811Z,20.67
2022-11-30T11:38:54.602Z,20.53
2022-11-30T11:41:39.996Z,19.52
2022-11-30T11:44:28.236Z,16.70
2022-11-30T11:47:24.047Z,18.35
2022-11-30T11:50:14.142Z,20.83
2022-11-30T11:53:25.087Z,19.55
2022-11-30T11:56:31.925Z,19.05
2022-11-30T11:59:39.273Z,23.45
2022-11-30T12:02:48.182Z,21.73
2022-11-30T12:05:38.333Z,24.35
2022-11-30T12:08:50.175Z,23.60
2022-11-30T12:11:47.801Z,19.75
2022-11-30T12:14:35.453Z,20.17
2022-11-30T12:17:54.308Z,19.38
2022-11-30T12:20:52.618Z,22.13
2022-11-30T12:23:58.797Z,21.23
2022-11-30T12:27:30.816Z,20.05
2022-11-30T12:30:44.293Z,18.60
2022-11-30T12:33:52.000Z,20.08
2022-11-30T12:36:44.151Z,21.15
2022-11-30T12:40:14.263Z,15.85
2022-11-30T12:43:15.318Z,20.08
2022-11-30T12:46:34.029Z,18.98
2022-11-30T12:49:44.652Z,19.38
2022-11-30T12:52:39.157Z,16.63
2022-11-30T12:55:52.734Z,19.83
2022-11-30T12:58:57.848Z,22.95
2022-11-30T13:02:01.840Z,22.27
2022-11-30T13:05:07.463Z,25.13
2022-11-30T13:10:59.672Z,23.77
2022-11-30T13:13:50.910Z,23.52
2022-11-30T13:16:37.272Z,28.85
2022-11-30T13:19:54.717Z,26.00
2022-11-30T13:22:58.850Z,31.48
2022-11-30T13:26:08.998Z,30.73
2022-11-30T13:29:22.801Z,27.02
2022-11-30T13:32:34.276Z,30.48
2022-11-30T13:35:28.350Z,27.83
2022-11-30T13:38:36.311Z,31.90
2022-11-30T13:41:22.121Z,34.22
2022-11-30T13:44:34.144Z,31.13
2022-11-30T13:47:37.898Z,33.17
2022-11-30T13:50:32.377Z,30.88
2022-11-30T13:53:22.548Z,34.55
2022-11-30T13:56:20.174Z,31.55
2022-11-30T13:59:26.670Z,34.92
2022-11-30T14:02:44.270Z,36.40
2022-11-30T14:05:32.686Z,37.83
2022-11-30T14:08:24.125Z,34.65
2022-11-30T14:11:35.966Z,35.88
2022-11-30T14:14:46.162Z,35.03
2022-11-30T14:17:35.691Z,34.38
2022-11-30T14:20:24.628Z,35.05
2022-11-30T14:23:23.174Z,38.28
2022-11-30T14:26:18.171Z,38.47
2022-11-30T14:29:08.134Z,41.70
2022-11-30T14:32:35.410Z,43.08
2022-11-30T14:35:24.434Z,40.10
2022-11-30T14:38:29.668Z,39.15
2022-11-30T14:41:24.913Z,40.50
2022-11-30T14:47:13.860Z,42.03
2022-11-30T14:50:05.681Z,40.78
2022-11-30T14:53:14.016Z,46.80
2022-11-30T14:56:24.334Z,38.88
2022-11-30T14:59:26.190Z,43.42
2022-11-30T15:02:23.028Z,43.08
2022-11-30T15:05:17.206Z,46.38
2022-11-30T15:08:04.277Z,43.80
2022-11-30T15:10:50.767Z,44.25
2022-11-30T15:13:43.699Z,46.20
2022-11-30T15:16:30.165Z,44.53
2022-11-30T15:19:35.813Z,45.95
2022-11-30T15:25:12.618Z,46.72
2022-11-30T15:27:59.741Z,49.53
2022-11-30T15:30:47.298Z,57.30
2022-11-30T15:33:45.307Z,49.60
2022-11-30T15:36:38.074Z,47.08
2022-11-30T15:39:28.611Z,47.90
2022-11-30T15:42:44.374Z,49.05
2022-11-30T15:48:35.293Z,43.50
2022-11-30T15:51:24.517Z,52.13
2022-11-30T15:54:09.796Z,47.75
2022-11-30T15:56:56.751Z,47.40
2022-11-30T15:59:42.592Z,49.38
2022-11-30T16:02:34.549Z,45.85
2022-11-30T16:05:25.243Z,49.40
2022-11-30T16:08:18.180Z,53.15
2022-11-30T16:11:08.055Z,51.88
2022-11-30T16:13:54.014Z,50.40
2022-11-30T16:16:39.688Z,50.92
2022-11-30T16:19:24.888Z,51.90
2022-11-30T16:22:15.490Z,55.47
2022-11-30T16:25:01.411Z,55.95
2022-11-30T16:27:48.181Z,56.25
2022-11-30T16:30:34.232Z,54.80
2022-11-30T16:33:22.188Z,61.00
2022-11-30T16:36:09.318Z,58.13
2022-11-30T16:39:03.792Z,62.15
2022-11-30T16:41:49.256Z,62.90
2022-11-30T16:44:38.553Z,67.55
2022-11-30T16:47:24.137Z,67.80
2022-11-30T16:50:11.363Z,71.15
2022-11-30T16:52:59.482Z,71.22
2022-11-30T16:55:44.697Z,72.82
2022-11-30T16:58:30.428Z,68.00
2022-11-30T17:01:38.172Z,68.53
2022-11-30T17:04:32.828Z,66.43
2022-11-30T17:07:18.244Z,73.22
2022-11-30T17:10:05.726Z,84.78
2022-11-30T17:12:53.838Z,79.40
2022-11-30T17:15:39.407Z,88.22
2022-11-30T17:18:24.628Z,86.25
2022-11-30T17:21:16.679Z,85.93
2022-11-30T17:24:02.858Z,93.28
2022-11-30T17:26:48.260Z,90.10
2022-11-30T17:29:36.098Z,89.57
2022-11-30T17:32:24.558Z,93.82
2022-11-30T17:35:16.448Z,97.10
2022-11-30T17:38:01.622Z,99.25
2022-11-30T17:40:47.281Z,106.30
2022-11-30T17:43:33.166Z,95.95
2022-11-30T17:46:24.180Z,98.43
2022-11-30T17:49:12.491Z,96.60
2022-11-30T17:51:57.986Z,98.03
2022-11-30T17:54:43.201Z,99.18
2022-11-30T17:57:28.658Z,93.28
2022-11-30T18:00:14.393Z,93.35
2022-11-30T18:03:00.382Z,95.35
2022-11-30T18:05:45.490Z,96.57
2022-11-30T18:08:34.347Z,87.13
2022-11-30T18:11:25.063Z,97.10
2022-11-30T18:14:10.736Z,94.85
2022-11-30T18:16:56.230Z,95.47
2022-11-30T18:19:48.194Z,102.13
2022-11-30T18:22:36.681Z,101.40
2022-11-30T18:25:32.746Z,100.00
2022-11-30T18:28:18.331Z,95.00
2022-11-30T18:31:06.551Z,98.05
2022-11-30T18:34:15.800Z,100.18
2022-11-30T18:37:01.594Z,107.85
2022-11-30T18:39:49.726Z,110.85
2022-11-30T18:42:38.069Z,109.72
2022-11-30T18:45:23.614Z,113.05
2022-11-30T18:48:09.262Z,124.72
2022-11-30T18:51:16.873Z,110.50
2022-11-30T18:54:04.191Z,114.55
2022-11-30T18:56:49.418Z,122.60
2022-11-30T18:59:36.739Z,126.63
2022-11-30T19:02:31.307Z,135.40
2022-11-30T19:05:32.217Z,116.93
2022-11-30T19:08:17.505Z,114.47
2022-11-30T19:11:07.767Z,124.32
2022-11-30T19:13:54.792Z,118.32
2022-11-30T19:16:41.189Z,113.75
2022-11-30T19:19:26.422Z,121.30
2022-11-30T19:22:14.878Z,126.45
2022-11-30T19:25:00.421Z,127.35
2022-11-30T19:27:48.769Z,127.07
2022-11-30T19:30:35.660Z,124.55
2022-11-30T19:33:21.195Z,137.45
2022-11-30T19:36:10.184Z,151.68
2022-11-30T19:38:58.074Z,147.32
2022-11-30T19:41:43.402Z,136.57
2022-11-30T19:44:28.531Z,162.10
2022-11-30T19:47:16.770Z,138.88
2022-11-30T19:50:02.054Z,145.93
2022-11-30T19:52:47.547Z,138.80
2022-11-30T19:55:36.474Z,136.13
2022-11-30T19:58:21.747Z,116.57
2022-11-30T20:01:30.712Z,102.32
2022-11-30T20:04:16.171Z,97.47
2022-11-30T20:07:01.697Z,97.72
2022-11-30T20:09:47.013Z,92.32
2022-11-30T20:12:33.492Z,84.63
2022-11-30T20:15:19.310Z,84.10
2022-11-30T20:18:04.718Z,76.20
2022-11-30T20:20:50.270Z,71.03
2022-11-30T20:23:35.750Z,70.03
2022-11-30T20:26:25.911Z,69.90
2022-11-30T20:29:15.032Z,81.03
2022-11-30T20:32:00.469Z,71.85
2022-11-30T20:34:45.865Z,80.40
2022-11-30T20:37:32.562Z,72.63
2022-11-30T20:40:18.848Z,75.07
2022-11-30T20:43:04.341Z,75.13
2022-11-30T20:45:49.952Z,74.90
2022-11-30T20:48:35.566Z,75.18
2022-11-30T20:51:31.593Z,82.15
2022-11-30T20:54:17.745Z,79.47
2022-11-30T20:57:03.195Z,75.72
2022-11-30T20:59:48.754Z,85.05
2022-11-30T21:02:34.122Z,86.75
2022-11-30T21:05:19.842Z,82.55
2022-11-30T21:08:05.885Z,92.03
2022-11-30T21:10:51.226Z,86.18
2022-11-30T21:13:38.057Z,84.65
2022-11-30T21:16:28.153Z,86.60
2022-11-30T21:19:34.953Z,87.15
2022-11-30T21:22:20.763Z,80.43
2022-11-30T21:25:09.614Z,85.10
2022-11-30T21:27:55.257Z,88.97
2022-11-30T21:30:40.613Z,84.40
2022-11-30T21:33:26.091Z,87.80
2022-11-30T21:36:14.018Z,88.75
2022-11-30T21:39:06.075Z,92.47
2022-11-30T21:41:52.035Z,99.13
2022-11-30T21:44:37.692Z,101.82
2022-11-30T21:47:23.170Z,99.00
2022-11-30T21:50:09.297Z,104.10
2022-11-30T21:52:54.878Z,96.70
2022-11-30T21:55:40.216Z,104.47
2022-11-30T21:58:25.953Z,93.85
2022-11-30T22:01:19.958Z,97.88
2022-11-30T22:04:09.762Z,101.68
2022-11-30T22:06:55.346Z,93.55
2022-11-30T22:09:40.928Z,89.50
2022-11-30T22:12:26.587Z,94.93
2022-11-30T22:15:12.022Z,99.35
2022-11-30T22:17:57.281Z,104.15
2022-11-30T22:20:43.070Z,106.65
2022-11-30T22:23:28.456Z,99.22
2022-11-30T22:26:15.201Z,110.35
2022-11-30T22:29:11.714Z,104.20
2022-11-30T22:31:56.989Z,118.53
2022-11-30T22:34:42.591Z,127.93
2022-11-30T22:37:28.310Z,111.30
2022-11-30T22:40:14.055Z,115.57
2022-11-30T22:42:59.742Z,114.22
2022-11-30T22:45:45.345Z,122.13
2022-11-30T22:48:33.200Z,135.20
2022-11-30T22:51:21.388Z,128.60
2022-11-30T22:54:07.423Z,147.15
2022-11-30T22:56:53.085Z,140.82
2022-11-30T22:59:41.626Z,145.05
2022-11-30T23:02:27.085Z,161.68
2022-11-30T23:05:15.205Z,145.88
2022-11-30T23:08:01.237Z,145.65
2022-11-30T23:10:46.887Z,152.95
2022-11-30T23:13:32.853Z,161.70
2022-11-30T23:16:19.447Z,165.25
2022-11-30T23:19:05.676Z,170.63
2022-11-30T23:21:51.458Z,187.38
2022-11-30T23:24:37.642Z,199.55
2022-11-30T23:27:23.009Z,198.10
2022-11-30T23:30:11.682Z,193.48
2022-11-30T23:32:57.241Z,203.02
2022-11-30T23:35:43.669Z,205.77
2022-11-30T23:38:29.025Z,198.77
2022-11-30T23:41:15.815Z,209.02
2022-11-30T23:44:01.425Z,204.88
2022-11-30T23:46:46.993Z,215.70
2022-11-30T23:49:32.510Z,222.65
2022-11-30T23:52:17.680Z,241.48
2022-11-30T23:55:03.435Z,240.77
2022-11-30T23:57:49.117Z,223.80
